Stafford, Ohio
Current Conditions -  °F | °C
As of 12:53 AM on Thursday 29 Jan 2015 (Local Time) from KPKB Reporting Station
Clear Clear  
Wind Chill: 24°   Ceiling: Unl
Heat Index: 24°   Visibility: 10mi
Dew Point: 14°   Wind: 3mph
Humidity: 65%   Direction: 100°E
Pressure: 30.25"   Gusts: NA
Location:  39.71°N, 81.28°W
Report Text: KPKB 290553Z AUTO 10003KT 10SM CLR M04/M10 A3025 RMK AO2 SLP254 T10441100 11033 21056 58024
Loading
Personal Weather Stations






























Interactive Weather Map New forecast layout! Learn more

10-Day Weather Forecast

Advertisements
Track Severe Weather on mobile